sensor_id;sensor_type;location;lat;lon;timestamp;P1;durP1;ratioP1;P2;durP2;ratioP2
37288;SDS011;23174;49.462;11.000;2024-03-29T00:00:47;2.50;;;1.65;;
37288;SDS011;23174;49.462;11.000;2024-03-29T00:02:47;1.50;;;1.40;;
37288;SDS011;23174;49.462;11.000;2024-03-29T00:04:48;1.48;;;1.38;;
37288;SDS011;23174;49.462;11.000;2024-03-29T00:06:48;1.48;;;1.38;;
37288;SDS011;23174;49.462;11.000;2024-03-29T00:08:49;2.00;;;1.58;;
37288;SDS011;23174;49.462;11.000;2024-03-29T00:10:49;3.05;;;1.67;;
37288;SDS011;23174;49.462;11.000;2024-03-29T00:12:50;1.60;;;1.50;;
37288;SDS011;23174;49.462;11.000;2024-03-29T00:14:50;1.40;;;1.30;;
37288;SDS011;23174;49.462;11.000;2024-03-29T00:16:51;7.03;;;1.67;;
37288;SDS011;23174;49.462;11.000;2024-03-29T00:18:52;1.67;;;1.40;;
37288;SDS011;23174;49.462;11.000;2024-03-29T00:20:52;2.35;;;1.45;;
37288;SDS011;23174;49.462;11.000;2024-03-29T00:22:53;2.38;;;1.40;;
37288;SDS011;23174;49.462;11.000;2024-03-29T00:24:53;1.50;;;1.40;;
37288;SDS011;23174;49.462;11.000;2024-03-29T00:26:54;3.55;;;1.45;;
37288;SDS011;23174;49.462;11.000;2024-03-29T00:28:54;1.90;;;1.40;;
37288;SDS011;23174;49.462;11.000;2024-03-29T00:30:55;1.20;;;1.10;;
37288;SDS011;23174;49.462;11.000;2024-03-29T00:32:55;2.25;;;1.48;;
37288;SDS011;23174;49.462;11.000;2024-03-29T00:34:56;2.25;;;1.63;;
37288;SDS011;23174;49.462;11.000;2024-03-29T00:36:58;2.45;;;1.77;;
37288;SDS011;23174;49.462;11.000;2024-03-29T00:38:58;2.10;;;1.48;;
37288;SDS011;23174;49.462;11.000;2024-03-29T00:40:58;1.77;;;1.40;;
37288;SDS011;23174;49.462;11.000;2024-03-29T00:42:59;1.50;;;1.40;;
37288;SDS011;23174;49.462;11.000;2024-03-29T00:44:59;2.78;;;1.40;;
37288;SDS011;23174;49.462;11.000;2024-03-29T00:47:00;2.50;;;1.20;;
37288;SDS011;23174;49.462;11.000;2024-03-29T00:49:01;1.45;;;1.27;;
37288;SDS011;23174;49.462;11.000;2024-03-29T00:51:01;1.40;;;1.30;;
37288;SDS011;23174;49.462;11.000;2024-03-29T00:53:02;1.52;;;1.42;;
37288;SDS011;23174;49.462;11.000;2024-03-29T00:55:02;1.40;;;1.30;;
37288;SDS011;23174;49.462;11.000;2024-03-29T00:57:05;1.48;;;1.38;;
37288;SDS011;23174;49.462;11.000;2024-03-29T00:59:07;1.33;;;1.23;;
37288;SDS011;23174;49.462;11.000;2024-03-29T01:01:07;2.63;;;1.50;;
37288;SDS011;23174;49.462;11.000;2024-03-29T01:03:08;1.38;;;1.13;;
37288;SDS011;23174;49.462;11.000;2024-03-29T01:05:08;1.35;;;1.25;;
37288;SDS011;23174;49.462;11.000;2024-03-29T01:07:08;1.35;;;1.25;;
37288;SDS011;23174;49.462;11.000;2024-03-29T01:09:09;1.73;;;1.55;;
37288;SDS011;23174;49.462;11.000;2024-03-29T01:11:13;2.25;;;1.30;;
37288;SDS011;23174;49.462;11.000;2024-03-29T01:13:13;1.77;;;1.17;;
37288;SDS011;23174;49.462;11.000;2024-03-29T01:15:14;1.55;;;1.10;;
37288;SDS011;23174;49.462;11.000;2024-03-29T01:17:14;1.10;;;1.00;;
37288;SDS011;23174;49.462;11.000;2024-03-29T01:19:14;1.38;;;1.27;;
37288;SDS011;23174;49.462;11.000;2024-03-29T01:21:15;2.67;;;1.33;;
37288;SDS011;23174;49.462;11.000;2024-03-29T01:23:17;1.80;;;1.17;;
37288;SDS011;23174;49.462;11.000;2024-03-29T01:25:18;1.08;;;1.08;;
37288;SDS011;23174;49.462;11.000;2024-03-29T01:27:18;3.00;;;1.35;;
37288;SDS011;23174;49.462;11.000;2024-03-29T01:29:19;1.10;;;1.10;;
37288;SDS011;23174;49.462;11.000;2024-03-29T01:31:21;3.60;;;1.13;;
37288;SDS011;23174;49.462;11.000;2024-03-29T01:33:22;1.30;;;1.20;;
37288;SDS011;23174;49.462;11.000;2024-03-29T01:35:22;2.53;;;1.40;;
37288;SDS011;23174;49.462;11.000;2024-03-29T01:37:23;1.17;;;1.00;;
37288;SDS011;23174;49.462;11.000;2024-03-29T01:39:23;1.58;;;0.90;;
37288;SDS011;23174;49.462;11.000;2024-03-29T01:41:26;1.33;;;1.23;;
37288;SDS011;23174;49.462;11.000;2024-03-29T01:43:27;1.63;;;1.05;;
37288;SDS011;23174;49.462;11.000;2024-03-29T01:45:28;2.15;;;1.30;;
37288;SDS011;23174;49.462;11.000;2024-03-29T01:47:30;3.53;;;1.23;;
37288;SDS011;23174;49.462;11.000;2024-03-29T01:49:30;1.50;;;1.40;;
37288;SDS011;23174;49.462;11.000;2024-03-29T01:51:31;3.05;;;1.20;;
37288;SDS011;23174;49.462;11.000;2024-03-29T01:53:32;1.25;;;1.15;;
37288;SDS011;23174;49.462;11.000;2024-03-29T01:55:33;1.75;;;1.30;;
37288;SDS011;23174;49.462;11.000;2024-03-29T01:57:34;1.23;;;0.93;;
37288;SDS011;23174;49.462;11.000;2024-03-29T01:59:36;1.50;;;1.15;;
37288;SDS011;23174;49.462;11.000;2024-03-29T02:01:38;1.25;;;1.15;;
37288;SDS011;23174;49.462;11.000;2024-03-29T02:03:41;1.58;;;1.20;;
37288;SDS011;23174;49.462;11.000;2024-03-29T02:05:41;1.60;;;1.30;;
37288;SDS011;23174;49.462;11.000;2024-03-29T02:07:43;1.75;;;1.13;;
37288;SDS011;23174;49.462;11.000;2024-03-29T02:09:46;1.20;;;1.10;;
37288;SDS011;23174;49.462;11.000;2024-03-29T02:11:47;1.45;;;1.20;;
37288;SDS011;23174;49.462;11.000;2024-03-29T02:13:48;1.10;;;1.00;;
37288;SDS011;23174;49.462;11.000;2024-03-29T02:15:49;0.90;;;0.90;;
37288;SDS011;23174;49.462;11.000;2024-03-29T02:17:50;1.35;;;1.25;;
37288;SDS011;23174;49.462;11.000;2024-03-29T02:19:51;1.80;;;1.27;;
37288;SDS011;23174;49.462;11.000;2024-03-29T02:21:51;1.95;;;1.13;;
37288;SDS011;23174;49.462;11.000;2024-03-29T02:24:00;1.25;;;1.08;;
37288;SDS011;23174;49.462;11.000;2024-03-29T02:26:04;1.02;;;0.90;;
37288;SDS011;23174;49.462;11.000;2024-03-29T02:28:05;0.90;;;0.90;;
37288;SDS011;23174;49.462;11.000;2024-03-29T02:30:06;1.15;;;1.05;;
37288;SDS011;23174;49.462;11.000;2024-03-29T02:32:07;1.15;;;1.08;;
37288;SDS011;23174;49.462;11.000;2024-03-29T02:34:07;1.40;;;1.23;;
37288;SDS011;23174;49.462;11.000;2024-03-29T02:36:09;1.42;;;1.05;;
37288;SDS011;23174;49.462;11.000;2024-03-29T02:38:11;2.13;;;1.40;;
37288;SDS011;23174;49.462;11.000;2024-03-29T02:40:11;1.17;;;1.08;;
37288;SDS011;23174;49.462;11.000;2024-03-29T02:42:12;1.17;;;1.08;;
37288;SDS011;23174;49.462;11.000;2024-03-29T02:44:12;1.10;;;1.00;;
37288;SDS011;23174;49.462;11.000;2024-03-29T02:46:15;1.08;;;1.02;;
37288;SDS011;23174;49.462;11.000;2024-03-29T02:48:16;1.15;;;1.10;;
37288;SDS011;23174;49.462;11.000;2024-03-29T02:50:16;1.30;;;1.13;;
37288;SDS011;23174;49.462;11.000;2024-03-29T02:52:17;0.95;;;0.90;;
37288;SDS011;23174;49.462;11.000;2024-03-29T02:54:17;0.80;;;0.80;;
37288;SDS011;23174;49.462;11.000;2024-03-29T02:56:18;1.20;;;1.10;;
37288;SDS011;23174;49.462;11.000;2024-03-29T02:58:21;1.13;;;1.02;;
37288;SDS011;23174;49.462;11.000;2024-03-29T03:00:21;0.98;;;0.70;;
37288;SDS011;23174;49.462;11.000;2024-03-29T03:02:22;1.08;;;0.98;;
37288;SDS011;23174;49.462;11.000;2024-03-29T03:04:22;0.80;;;0.80;;
37288;SDS011;23174;49.462;11.000;2024-03-29T03:06:23;0.80;;;0.70;;
37288;SDS011;23174;49.462;11.000;2024-03-29T03:08:24;1.38;;;0.90;;
37288;SDS011;23174;49.462;11.000;2024-03-29T03:10:46;0.80;;;0.80;;
37288;SDS011;23174;49.462;11.000;2024-03-29T03:12:56;0.90;;;0.90;;
37288;SDS011;23174;49.462;11.000;2024-03-29T03:14:57;0.98;;;0.88;;
37288;SDS011;23174;49.462;11.000;2024-03-29T03:16:58;1.80;;;1.10;;
37288;SDS011;23174;49.462;11.000;2024-03-29T03:18:59;0.93;;;0.80;;
37288;SDS011;23174;49.462;11.000;2024-03-29T03:21:00;0.90;;;0.85;;
37288;SDS011;23174;49.462;11.000;2024-03-29T03:23:01;0.95;;;0.68;;
37288;SDS011;23174;49.462;11.000;2024-03-29T03:25:02;1.65;;;1.00;;
37288;SDS011;23174;49.462;11.000;2024-03-29T03:27:02;1.20;;;1.10;;
37288;SDS011;23174;49.462;11.000;2024-03-29T03:29:03;0.80;;;0.80;;
37288;SDS011;23174;49.462;11.000;2024-03-29T03:31:04;0.75;;;0.63;;
37288;SDS011;23174;49.462;11.000;2024-03-29T03:33:04;1.52;;;0.90;;
37288;SDS011;23174;49.462;11.000;2024-03-29T03:35:05;2.17;;;1.00;;
37288;SDS011;23174;49.462;11.000;2024-03-29T03:37:07;1.02;;;0.73;;
37288;SDS011;23174;49.462;11.000;2024-03-29T03:39:07;0.80;;;0.80;;
37288;SDS011;23174;49.462;11.000;2024-03-29T03:41:08;0.63;;;0.63;;
37288;SDS011;23174;49.462;11.000;2024-03-29T03:43:08;0.70;;;0.70;;
37288;SDS011;23174;49.462;11.000;2024-03-29T03:45:09;1.35;;;0.90;;
37288;SDS011;23174;49.462;11.000;2024-03-29T03:47:09;1.08;;;0.73;;
37288;SDS011;23174;49.462;11.000;2024-03-29T03:49:10;1.95;;;0.80;;
37288;SDS011;23174;49.462;11.000;2024-03-29T03:51:10;1.25;;;0.80;;
37288;SDS011;23174;49.462;11.000;2024-03-29T03:53:11;0.70;;;0.70;;
37288;SDS011;23174;49.462;11.000;2024-03-29T03:55:12;1.27;;;0.90;;
37288;SDS011;23174;49.462;11.000;2024-03-29T03:57:13;0.80;;;0.80;;
37288;SDS011;23174;49.462;11.000;2024-03-29T03:59:14;1.38;;;0.88;;
37288;SDS011;23174;49.462;11.000;2024-03-29T04:01:15;0.80;;;0.80;;
37288;SDS011;23174;49.462;11.000;2024-03-29T04:03:15;0.93;;;0.93;;
37288;SDS011;23174;49.462;11.000;2024-03-29T04:05:19;2.20;;;0.85;;
37288;SDS011;23174;49.462;11.000;2024-03-29T04:07:20;1.25;;;1.02;;
37288;SDS011;23174;49.462;11.000;2024-03-29T04:09:21;2.00;;;1.08;;
37288;SDS011;23174;49.462;11.000;2024-03-29T04:11:21;1.83;;;0.63;;
37288;SDS011;23174;49.462;11.000;2024-03-29T04:13:22;3.67;;;0.90;;
37288;SDS011;23174;49.462;11.000;2024-03-29T04:15:23;0.95;;;0.85;;
37288;SDS011;23174;49.462;11.000;2024-03-29T04:17:23;1.52;;;0.93;;
37288;SDS011;23174;49.462;11.000;2024-03-29T04:19:24;0.60;;;0.60;;
37288;SDS011;23174;49.462;11.000;2024-03-29T04:21:24;1.73;;;1.00;;
37288;SDS011;23174;49.462;11.000;2024-03-29T04:23:25;0.80;;;0.80;;
37288;SDS011;23174;49.462;11.000;2024-03-29T04:25:25;0.82;;;0.50;;
37288;SDS011;23174;49.462;11.000;2024-03-29T04:27:26;0.60;;;0.60;;
37288;SDS011;23174;49.462;11.000;2024-03-29T04:29:26;0.90;;;0.73;;
37288;SDS011;23174;49.462;11.000;2024-03-29T04:31:27;0.70;;;0.70;;
37288;SDS011;23174;49.462;11.000;2024-03-29T04:33:27;2.05;;;0.77;;
37288;SDS011;23174;49.462;11.000;2024-03-29T04:35:28;0.63;;;0.63;;
37288;SDS011;23174;49.462;11.000;2024-03-29T04:37:29;0.80;;;0.80;;
37288;SDS011;23174;49.462;11.000;2024-03-29T04:39:29;1.23;;;0.70;;
37288;SDS011;23174;49.462;11.000;2024-03-29T04:41:30;0.90;;;0.90;;
37288;SDS011;23174;49.462;11.000;2024-03-29T04:43:34;0.65;;;0.57;;
37288;SDS011;23174;49.462;11.000;2024-03-29T04:45:34;0.63;;;0.63;;
37288;SDS011;23174;49.462;11.000;2024-03-29T04:47:35;1.27;;;0.70;;
37288;SDS011;23174;49.462;11.000;2024-03-29T04:49:35;0.70;;;0.70;;
37288;SDS011;23174;49.462;11.000;2024-03-29T04:51:38;0.80;;;0.73;;
37288;SDS011;23174;49.462;11.000;2024-03-29T04:53:39;2.63;;;0.70;;
37288;SDS011;23174;49.462;11.000;2024-03-29T04:55:39;0.90;;;0.60;;
37288;SDS011;23174;49.462;11.000;2024-03-29T04:57:40;0.50;;;0.50;;
37288;SDS011;23174;49.462;11.000;2024-03-29T04:59:40;2.30;;;0.70;;
37288;SDS011;23174;49.462;11.000;2024-03-29T05:01:41;1.10;;;0.90;;
37288;SDS011;23174;49.462;11.000;2024-03-29T05:03:43;1.35;;;0.60;;
37288;SDS011;23174;49.462;11.000;2024-03-29T05:05:44;1.00;;;0.80;;
37288;SDS011;23174;49.462;11.000;2024-03-29T05:07:46;0.73;;;0.70;;
37288;SDS011;23174;49.462;11.000;2024-03-29T05:09:46;0.75;;;0.70;;
37288;SDS011;23174;49.462;11.000;2024-03-29T05:11:47;0.95;;;0.90;;
37288;SDS011;23174;49.462;11.000;2024-03-29T05:13:48;1.15;;;0.88;;
37288;SDS011;23174;49.462;11.000;2024-03-29T05:15:48;0.80;;;0.80;;
37288;SDS011;23174;49.462;11.000;2024-03-29T05:17:49;0.50;;;0.50;;
37288;SDS011;23174;49.462;11.000;2024-03-29T05:19:49;0.50;;;0.50;;
37288;SDS011;23174;49.462;11.000;2024-03-29T05:21:50;1.67;;;0.70;;
37288;SDS011;23174;49.462;11.000;2024-03-29T05:23:51;1.67;;;0.70;;
37288;SDS011;23174;49.462;11.000;2024-03-29T05:25:51;0.50;;;0.50;;
37288;SDS011;23174;49.462;11.000;2024-03-29T05:27:52;0.55;;;0.55;;
37288;SDS011;23174;49.462;11.000;2024-03-29T05:29:53;0.93;;;0.50;;
37288;SDS011;23174;49.462;11.000;2024-03-29T05:31:53;0.35;;;0.30;;
37288;SDS011;23174;49.462;11.000;2024-03-29T05:33:54;0.52;;;0.40;;
37288;SDS011;23174;49.462;11.000;2024-03-29T05:35:54;0.50;;;0.50;;
37288;SDS011;23174;49.462;11.000;2024-03-29T05:37:55;0.60;;;0.60;;
37288;SDS011;23174;49.462;11.000;2024-03-29T05:39:55;0.70;;;0.70;;
37288;SDS011;23174;49.462;11.000;2024-03-29T05:41:59;0.68;;;0.57;;
37288;SDS011;23174;49.462;11.000;2024-03-29T05:43:59;0.68;;;0.68;;
37288;SDS011;23174;49.462;11.000;2024-03-29T05:46:00;1.58;;;0.95;;
37288;SDS011;23174;49.462;11.000;2024-03-29T05:48:01;0.60;;;0.60;;
37288;SDS011;23174;49.462;11.000;2024-03-29T05:50:02;1.02;;;0.70;;
37288;SDS011;23174;49.462;11.000;2024-03-29T05:52:02;0.60;;;0.50;;
37288;SDS011;23174;49.462;11.000;2024-03-29T05:54:03;1.10;;;0.50;;
37288;SDS011;23174;49.462;11.000;2024-03-29T05:56:04;0.65;;;0.65;;
37288;SDS011;23174;49.462;11.000;2024-03-29T05:58:05;1.00;;;0.70;;
37288;SDS011;23174;49.462;11.000;2024-03-29T06:00:06;0.95;;;0.63;;
37288;SDS011;23174;49.462;11.000;2024-03-29T06:02:10;0.73;;;0.73;;
37288;SDS011;23174;49.462;11.000;2024-03-29T06:04:11;2.78;;;0.65;;
37288;SDS011;23174;49.462;11.000;2024-03-29T06:06:19;1.85;;;0.70;;
37288;SDS011;23174;49.462;11.000;2024-03-29T06:08:23;0.77;;;0.77;;
37288;SDS011;23174;49.462;11.000;2024-03-29T06:10:26;1.80;;;0.60;;
37288;SDS011;23174;49.462;11.000;2024-03-29T06:12:27;0.60;;;0.60;;
37288;SDS011;23174;49.462;11.000;2024-03-29T06:14:27;0.52;;;0.47;;
37288;SDS011;23174;49.462;11.000;2024-03-29T06:16:46;0.80;;;0.80;;
37288;SDS011;23174;49.462;11.000;2024-03-29T06:19:06;1.65;;;0.60;;
37288;SDS011;23174;49.462;11.000;2024-03-29T06:21:06;2.88;;;1.13;;
37288;SDS011;23174;49.462;11.000;2024-03-29T06:23:09;1.17;;;0.90;;
37288;SDS011;23174;49.462;11.000;2024-03-29T06:25:09;1.75;;;1.65;;
37288;SDS011;23174;49.462;11.000;2024-03-29T06:27:10;0.88;;;0.68;;
37288;SDS011;23174;49.462;11.000;2024-03-29T06:29:11;0.50;;;0.50;;
37288;SDS011;23174;49.462;11.000;2024-03-29T06:31:11;0.60;;;0.60;;
37288;SDS011;23174;49.462;11.000;2024-03-29T06:33:12;0.40;;;0.40;;
37288;SDS011;23174;49.462;11.000;2024-03-29T06:35:12;0.60;;;0.60;;
37288;SDS011;23174;49.462;11.000;2024-03-29T06:37:13;2.10;;;1.50;;
37288;SDS011;23174;49.462;11.000;2024-03-29T06:39:14;0.50;;;0.50;;
37288;SDS011;23174;49.462;11.000;2024-03-29T06:41:14;1.67;;;0.80;;
37288;SDS011;23174;49.462;11.000;2024-03-29T06:43:15;1.02;;;0.70;;
37288;SDS011;23174;49.462;11.000;2024-03-29T06:45:16;0.70;;;0.70;;
37288;SDS011;23174;49.462;11.000;2024-03-29T06:47:16;3.28;;;0.70;;
37288;SDS011;23174;49.462;11.000;2024-03-29T06:49:16;0.50;;;0.50;;
37288;SDS011;23174;49.462;11.000;2024-03-29T06:51:17;0.77;;;0.70;;
37288;SDS011;23174;49.462;11.000;2024-03-29T06:53:18;0.30;;;0.30;;
37288;SDS011;23174;49.462;11.000;2024-03-29T06:55:18;0.63;;;0.63;;
37288;SDS011;23174;49.462;11.000;2024-03-29T06:57:19;0.57;;;0.50;;
37288;SDS011;23174;49.462;11.000;2024-03-29T06:59:23;1.05;;;0.70;;
37288;SDS011;23174;49.462;11.000;2024-03-29T07:01:24;0.77;;;0.70;;
37288;SDS011;23174;49.462;11.000;2024-03-29T07:03:24;0.73;;;0.60;;
37288;SDS011;23174;49.462;11.000;2024-03-29T07:05:25;1.13;;;0.73;;
37288;SDS011;23174;49.462;11.000;2024-03-29T07:07:25;0.80;;;0.73;;
37288;SDS011;23174;49.462;11.000;2024-03-29T07:09:26;0.52;;;0.52;;
37288;SDS011;23174;49.462;11.000;2024-03-29T07:11:26;0.68;;;0.65;;
37288;SDS011;23174;49.462;11.000;2024-03-29T07:13:28;0.75;;;0.65;;
37288;SDS011;23174;49.462;11.000;2024-03-29T07:15:30;0.70;;;0.70;;
37288;SDS011;23174;49.462;11.000;2024-03-29T07:17:30;1.85;;;0.68;;
37288;SDS011;23174;49.462;11.000;2024-03-29T07:19:31;0.50;;;0.50;;
37288;SDS011;23174;49.462;11.000;2024-03-29T07:21:31;1.25;;;0.80;;
37288;SDS011;23174;49.462;11.000;2024-03-29T07:23:32;1.05;;;0.80;;
37288;SDS011;23174;49.462;11.000;2024-03-29T07:25:33;0.57;;;0.50;;
37288;SDS011;23174;49.462;11.000;2024-03-29T07:27:33;0.43;;;0.43;;
37288;SDS011;23174;49.462;11.000;2024-03-29T07:29:35;0.95;;;0.68;;
37288;SDS011;23174;49.462;11.000;2024-03-29T07:31:36;0.70;;;0.50;;
37288;SDS011;23174;49.462;11.000;2024-03-29T07:33:37;0.60;;;0.60;;
37288;SDS011;23174;49.462;11.000;2024-03-29T07:35:37;0.30;;;0.30;;
37288;SDS011;23174;49.462;11.000;2024-03-29T07:37:41;2.75;;;0.65;;
37288;SDS011;23174;49.462;11.000;2024-03-29T07:39:45;0.47;;;0.47;;
37288;SDS011;23174;49.462;11.000;2024-03-29T07:41:46;2.28;;;0.80;;
37288;SDS011;23174;49.462;11.000;2024-03-29T07:43:54;0.60;;;0.50;;
37288;SDS011;23174;49.462;11.000;2024-03-29T07:46:04;0.60;;;0.60;;
37288;SDS011;23174;49.462;11.000;2024-03-29T07:48:10;0.82;;;0.50;;
37288;SDS011;23174;49.462;11.000;2024-03-29T07:50:13;0.70;;;0.60;;
37288;SDS011;23174;49.462;11.000;2024-03-29T07:52:13;1.75;;;0.50;;
37288;SDS011;23174;49.462;11.000;2024-03-29T07:54:14;0.73;;;0.55;;
37288;SDS011;23174;49.462;11.000;2024-03-29T07:56:14;0.63;;;0.63;;
37288;SDS011;23174;49.462;11.000;2024-03-29T07:58:16;1.80;;;0.55;;
37288;SDS011;23174;49.462;11.000;2024-03-29T08:00:17;0.45;;;0.45;;
37288;SDS011;23174;49.462;11.000;2024-03-29T08:02:17;0.77;;;0.70;;
37288;SDS011;23174;49.462;11.000;2024-03-29T08:04:18;0.70;;;0.65;;
37288;SDS011;23174;49.462;11.000;2024-03-29T08:06:19;0.60;;;0.38;;
37288;SDS011;23174;49.462;11.000;2024-03-29T08:08:20;0.40;;;0.40;;
37288;SDS011;23174;49.462;11.000;2024-03-29T08:10:20;0.68;;;0.40;;
37288;SDS011;23174;49.462;11.000;2024-03-29T08:12:21;1.65;;;0.47;;
37288;SDS011;23174;49.462;11.000;2024-03-29T08:14:21;0.93;;;0.70;;
37288;SDS011;23174;49.462;11.000;2024-03-29T08:16:22;0.80;;;0.50;;
37288;SDS011;23174;49.462;11.000;2024-03-29T08:18:22;0.43;;;0.43;;
37288;SDS011;23174;49.462;11.000;2024-03-29T08:20:23;0.65;;;0.65;;
37288;SDS011;23174;49.462;11.000;2024-03-29T08:22:29;1.55;;;0.50;;
37288;SDS011;23174;49.462;11.000;2024-03-29T08:24:32;1.75;;;0.47;;
37288;SDS011;23174;49.462;11.000;2024-03-29T08:26:32;0.30;;;0.30;;
37288;SDS011;23174;49.462;11.000;2024-03-29T08:28:34;3.45;;;1.00;;
37288;SDS011;23174;49.462;11.000;2024-03-29T08:30:37;0.40;;;0.40;;
37288;SDS011;23174;49.462;11.000;2024-03-29T08:32:37;1.70;;;1.05;;
37288;SDS011;23174;49.462;11.000;2024-03-29T08:34:38;2.47;;;1.70;;
37288;SDS011;23174;49.462;11.000;2024-03-29T08:36:39;5.55;;;3.63;;
37288;SDS011;23174;49.462;11.000;2024-03-29T08:38:39;2.15;;;1.95;;
37288;SDS011;23174;49.462;11.000;2024-03-29T08:40:43;4.97;;;4.57;;
37288;SDS011;23174;49.462;11.000;2024-03-29T08:42:46;5.40;;;3.72;;
37288;SDS011;23174;49.462;11.000;2024-03-29T08:44:46;4.35;;;3.95;;
37288;SDS011;23174;49.462;11.000;2024-03-29T08:46:47;8.27;;;7.35;;
37288;SDS011;23174;49.462;11.000;2024-03-29T08:48:47;24.40;;;13.77;;
37288;SDS011;23174;49.462;11.000;2024-03-29T08:50:48;19.00;;;11.75;;
37288;SDS011;23174;49.462;11.000;2024-03-29T08:52:48;8.70;;;7.78;;
37288;SDS011;23174;49.462;11.000;2024-03-29T08:54:49;12.32;;;4.15;;
37288;SDS011;23174;49.462;11.000;2024-03-29T08:56:49;1.20;;;1.10;;
37288;SDS011;23174;49.462;11.000;2024-03-29T08:58:50;0.75;;;0.40;;
37288;SDS011;23174;49.462;11.000;2024-03-29T09:00:53;1.10;;;0.50;;
37288;SDS011;23174;49.462;11.000;2024-03-29T09:02:58;1.00;;;0.68;;
37288;SDS011;23174;49.462;11.000;2024-03-29T09:04:58;2.35;;;0.57;;
37288;SDS011;23174;49.462;11.000;2024-03-29T09:06:59;0.93;;;0.70;;
37288;SDS011;23174;49.462;11.000;2024-03-29T09:09:02;3.35;;;0.90;;
37288;SDS011;23174;49.462;11.000;2024-03-29T09:11:03;1.65;;;0.73;;
37288;SDS011;23174;49.462;11.000;2024-03-29T09:13:03;0.55;;;0.55;;
37288;SDS011;23174;49.462;11.000;2024-03-29T09:15:07;1.13;;;0.73;;
37288;SDS011;23174;49.462;11.000;2024-03-29T09:17:13;1.77;;;1.20;;
37288;SDS011;23174;49.462;11.000;2024-03-29T09:19:14;1.27;;;0.85;;
37288;SDS011;23174;49.462;11.000;2024-03-29T09:21:14;1.00;;;0.80;;
37288;SDS011;23174;49.462;11.000;2024-03-29T09:23:15;0.90;;;0.60;;
37288;SDS011;23174;49.462;11.000;2024-03-29T09:25:17;2.25;;;0.70;;
37288;SDS011;23174;49.462;11.000;2024-03-29T09:27:17;0.93;;;0.80;;
37288;SDS011;23174;49.462;11.000;2024-03-29T09:29:18;3.75;;;0.73;;
37288;SDS011;23174;49.462;11.000;2024-03-29T09:31:20;4.38;;;0.88;;
37288;SDS011;23174;49.462;11.000;2024-03-29T09:33:21;0.60;;;0.60;;
37288;SDS011;23174;49.462;11.000;2024-03-29T09:35:21;2.97;;;0.90;;
37288;SDS011;23174;49.462;11.000;2024-03-29T09:37:22;1.65;;;0.63;;
37288;SDS011;23174;49.462;11.000;2024-03-29T09:39:23;1.15;;;0.45;;
37288;SDS011;23174;49.462;11.000;2024-03-29T09:41:24;0.90;;;0.73;;
37288;SDS011;23174;49.462;11.000;2024-03-29T09:43:28;1.20;;;0.70;;
37288;SDS011;23174;49.462;11.000;2024-03-29T09:45:35;1.05;;;0.68;;
37288;SDS011;23174;49.462;11.000;2024-03-29T09:47:37;2.90;;;0.60;;
37288;SDS011;23174;49.462;11.000;2024-03-29T09:49:40;1.08;;;0.80;;
37288;SDS011;23174;49.462;11.000;2024-03-29T09:51:44;2.42;;;0.90;;
37288;SDS011;23174;49.462;11.000;2024-03-29T09:53:45;1.23;;;1.10;;
37288;SDS011;23174;49.462;11.000;2024-03-29T09:55:47;1.90;;;0.90;;
37288;SDS011;23174;49.462;11.000;2024-03-29T09:57:47;1.42;;;0.90;;
37288;SDS011;23174;49.462;11.000;2024-03-29T09:59:48;1.38;;;0.70;;
37288;SDS011;23174;49.462;11.000;2024-03-29T10:01:49;1.90;;;0.80;;
37288;SDS011;23174;49.462;11.000;2024-03-29T10:03:51;0.65;;;0.65;;
37288;SDS011;23174;49.462;11.000;2024-03-29T10:05:53;1.55;;;0.90;;
37288;SDS011;23174;49.462;11.000;2024-03-29T10:07:55;1.50;;;0.93;;
37288;SDS011;23174;49.462;11.000;2024-03-29T10:09:56;0.88;;;0.80;;
37288;SDS011;23174;49.462;11.000;2024-03-29T10:11:58;0.63;;;0.63;;
37288;SDS011;23174;49.462;11.000;2024-03-29T10:13:59;0.80;;;0.80;;
37288;SDS011;23174;49.462;11.000;2024-03-29T10:16:00;1.30;;;0.85;;
37288;SDS011;23174;49.462;11.000;2024-03-29T10:18:02;1.58;;;0.80;;
37288;SDS011;23174;49.462;11.000;2024-03-29T10:20:03;0.98;;;0.93;;
37288;SDS011;23174;49.462;11.000;2024-03-29T10:22:05;1.23;;;0.90;;
37288;SDS011;23174;49.462;11.000;2024-03-29T10:24:13;0.70;;;0.70;;
37288;SDS011;23174;49.462;11.000;2024-03-29T10:26:15;3.95;;;2.13;;
37288;SDS011;23174;49.462;11.000;2024-03-29T10:28:15;3.30;;;2.83;;
37288;SDS011;23174;49.462;11.000;2024-03-29T10:30:18;2.33;;;1.42;;
37288;SDS011;23174;49.462;11.000;2024-03-29T10:32:21;1.50;;;1.40;;
37288;SDS011;23174;49.462;11.000;2024-03-29T10:34:22;1.08;;;0.98;;
37288;SDS011;23174;49.462;11.000;2024-03-29T10:36:25;1.63;;;0.77;;
37288;SDS011;23174;49.462;11.000;2024-03-29T10:38:26;0.90;;;0.90;;
37288;SDS011;23174;49.462;11.000;2024-03-29T10:40:27;1.63;;;1.50;;
37288;SDS011;23174;49.462;11.000;2024-03-29T10:42:29;4.35;;;3.95;;
37288;SDS011;23174;49.462;11.000;2024-03-29T10:44:33;1.40;;;1.30;;
37288;SDS011;23174;49.462;11.000;2024-03-29T10:46:35;1.98;;;1.13;;
37288;SDS011;23174;49.462;11.000;2024-03-29T10:48:36;1.20;;;1.10;;
37288;SDS011;23174;49.462;11.000;2024-03-29T10:50:38;1.20;;;1.10;;
37288;SDS011;23174;49.462;11.000;2024-03-29T10:52:41;2.25;;;1.00;;
37288;SDS011;23174;49.462;11.000;2024-03-29T10:54:46;1.35;;;1.20;;
37288;SDS011;23174;49.462;11.000;2024-03-29T10:56:47;1.00;;;0.90;;
37288;SDS011;23174;49.462;11.000;2024-03-29T10:58:59;1.58;;;1.40;;
37288;SDS011;23174;49.462;11.000;2024-03-29T11:01:20;3.08;;;1.30;;
37288;SDS011;23174;49.462;11.000;2024-03-29T11:05:37;1.40;;;1.23;;
37288;SDS011;23174;49.462;11.000;2024-03-29T11:09:50;1.15;;;1.05;;
37288;SDS011;23174;49.462;11.000;2024-03-29T11:11:54;1.65;;;1.55;;
37288;SDS011;23174;49.462;11.000;2024-03-29T11:14:00;1.40;;;1.10;;
37288;SDS011;23174;49.462;11.000;2024-03-29T11:16:03;1.48;;;0.77;;
37288;SDS011;23174;49.462;11.000;2024-03-29T11:18:04;1.75;;;1.13;;
37288;SDS011;23174;49.462;11.000;2024-03-29T11:20:05;1.20;;;1.17;;
37288;SDS011;23174;49.462;11.000;2024-03-29T11:22:07;1.58;;;1.30;;
37288;SDS011;23174;49.462;11.000;2024-03-29T11:24:08;1.52;;;1.33;;
37288;SDS011;23174;49.462;11.000;2024-03-29T11:26:10;2.15;;;1.33;;
37288;SDS011;23174;49.462;11.000;2024-03-29T11:28:27;1.08;;;0.90;;
37288;SDS011;23174;49.462;11.000;2024-03-29T11:32:42;1.88;;;1.00;;
37288;SDS011;23174;49.462;11.000;2024-03-29T11:34:43;1.63;;;1.10;;
37288;SDS011;23174;49.462;11.000;2024-03-29T11:36:45;2.65;;;1.27;;
37288;SDS011;23174;49.462;11.000;2024-03-29T11:38:46;0.85;;;0.85;;
37288;SDS011;23174;49.462;11.000;2024-03-29T11:41:00;1.20;;;1.10;;
37288;SDS011;23174;49.462;11.000;2024-03-29T11:43:10;2.22;;;1.02;;
37288;SDS011;23174;49.462;11.000;2024-03-29T11:45:11;1.80;;;0.93;;
37288;SDS011;23174;49.462;11.000;2024-03-29T11:47:11;2.05;;;0.98;;
37288;SDS011;23174;49.462;11.000;2024-03-29T11:49:15;0.85;;;0.85;;
37288;SDS011;23174;49.462;11.000;2024-03-29T11:51:16;0.90;;;0.90;;
37288;SDS011;23174;49.462;11.000;2024-03-29T11:53:19;1.38;;;0.95;;
37288;SDS011;23174;49.462;11.000;2024-03-29T11:55:20;0.95;;;0.95;;
37288;SDS011;23174;49.462;11.000;2024-03-29T11:57:22;1.33;;;1.13;;
37288;SDS011;23174;49.462;11.000;2024-03-29T11:59:22;1.50;;;1.30;;
37288;SDS011;23174;49.462;11.000;2024-03-29T12:01:23;1.75;;;1.10;;
37288;SDS011;23174;49.462;11.000;2024-03-29T12:03:24;1.83;;;1.10;;
37288;SDS011;23174;49.462;11.000;2024-03-29T12:05:25;1.20;;;1.00;;
37288;SDS011;23174;49.462;11.000;2024-03-29T12:07:26;1.75;;;1.35;;